Airport ID:KO69
Update Time (UTC):02/12/2020 22:38
Wind Speed (Knots):6
Wind Direction (Magnetic):250
Temperature (°C):18
Dew Point (°C):6
Humidity (%):46
Altimeter (inHg):30.1
Density Altitude (Feet):
Visibility:10+
Clouds (Hundreds of feet):CLR
Present Weather:
METAR:METAR KO69 022235Z AUTO 27005KT 10SM CLR 18/06 A3010 RMK A01

The data displayed is for advisory purposes only and is not to be used for flight planning or operations.